sensor_id;sensor_type;location;lat;lon;timestamp;temperature;humidity
33476;DHT22;19814;48.224;11.422;2023-01-28T00:01:38;0.60;99.90
33476;DHT22;19814;48.224;11.422;2023-01-28T00:04:03;0.60;99.90
33476;DHT22;19814;48.224;11.422;2023-01-28T00:06:29;0.60;99.90
33476;DHT22;19814;48.224;11.422;2023-01-28T00:08:54;0.50;99.90
33476;DHT22;19814;48.224;11.422;2023-01-28T00:11:20;0.50;99.90
33476;DHT22;19814;48.224;11.422;2023-01-28T00:13:52;0.40;99.90
33476;DHT22;19814;48.224;11.422;2023-01-28T00:16:18;0.40;99.90
33476;DHT22;19814;48.224;11.422;2023-01-28T00:18:44;0.40;99.90
33476;DHT22;19814;48.224;11.422;2023-01-28T00:21:11;0.50;99.90
33476;DHT22;19814;48.224;11.422;2023-01-28T00:23:38;0.50;99.90
33476;DHT22;19814;48.224;11.422;2023-01-28T00:26:11;0.50;99.90
33476;DHT22;19814;48.224;11.422;2023-01-28T00:28:36;0.50;99.90
33476;DHT22;19814;48.224;11.422;2023-01-28T00:31:07;0.50;99.90
33476;DHT22;19814;48.224;11.422;2023-01-28T00:33:34;0.40;99.90
33476;DHT22;19814;48.224;11.422;2023-01-28T00:36:00;0.40;99.90
33476;DHT22;19814;48.224;11.422;2023-01-28T00:38:27;0.40;99.90
33476;DHT22;19814;48.224;11.422;2023-01-28T00:40:53;0.40;99.90
33476;DHT22;19814;48.224;11.422;2023-01-28T00:43:18;0.40;99.90
33476;DHT22;19814;48.224;11.422;2023-01-28T00:45:44;0.40;99.90
33476;DHT22;19814;48.224;11.422;2023-01-28T00:48:09;0.40;99.90
33476;DHT22;19814;48.224;11.422;2023-01-28T00:50:35;0.40;99.90
33476;DHT22;19814;48.224;11.422;2023-01-28T00:53:01;0.40;99.90
33476;DHT22;19814;48.224;11.422;2023-01-28T00:55:27;0.40;99.90
33476;DHT22;19814;48.224;11.422;2023-01-28T00:57:53;0.30;99.90
33476;DHT22;19814;48.224;11.422;2023-01-28T01:00:18;0.30;99.90
33476;DHT22;19814;48.224;11.422;2023-01-28T01:02:46;0.30;99.90
33476;DHT22;19814;48.224;11.422;2023-01-28T01:05:11;0.30;99.90
33476;DHT22;19814;48.224;11.422;2023-01-28T01:07:37;0.30;99.90
33476;DHT22;19814;48.224;11.422;2023-01-28T01:10:10;0.20;99.90
33476;DHT22;19814;48.224;11.422;2023-01-28T01:12:36;0.20;99.90
33476;DHT22;19814;48.224;11.422;2023-01-28T01:15:02;0.30;99.90
33476;DHT22;19814;48.224;11.422;2023-01-28T01:17:30;0.30;99.90
33476;DHT22;19814;48.224;11.422;2023-01-28T01:19:56;0.30;99.90
33476;DHT22;19814;48.224;11.422;2023-01-28T01:22:22;0.30;99.90
33476;DHT22;19814;48.224;11.422;2023-01-28T01:24:47;0.20;99.90
33476;DHT22;19814;48.224;11.422;2023-01-28T01:27:13;0.20;99.90
33476;DHT22;19814;48.224;11.422;2023-01-28T01:29:38;0.20;99.90
33476;DHT22;19814;48.224;11.422;2023-01-28T01:32:04;0.30;99.90
33476;DHT22;19814;48.224;11.422;2023-01-28T01:34:30;0.30;99.90
33476;DHT22;19814;48.224;11.422;2023-01-28T01:36:55;0.20;99.90
33476;DHT22;19814;48.224;11.422;2023-01-28T01:39:21;0.20;99.90
33476;DHT22;19814;48.224;11.422;2023-01-28T01:41:46;0.30;99.90
33476;DHT22;19814;48.224;11.422;2023-01-28T01:47:16;0.30;99.90
33476;DHT22;19814;48.224;11.422;2023-01-28T01:49:42;0.30;99.90
33476;DHT22;19814;48.224;11.422;2023-01-28T01:52:12;0.30;99.90
33476;DHT22;19814;48.224;11.422;2023-01-28T01:54:43;0.30;99.90
33476;DHT22;19814;48.224;11.422;2023-01-28T01:57:15;0.30;99.90
33476;DHT22;19814;48.224;11.422;2023-01-28T01:59:41;0.20;99.90
33476;DHT22;19814;48.224;11.422;2023-01-28T02:02:09;0.20;99.90
33476;DHT22;19814;48.224;11.422;2023-01-28T02:04:41;0.20;99.90
33476;DHT22;19814;48.224;11.422;2023-01-28T02:07:09;0.20;99.90
33476;DHT22;19814;48.224;11.422;2023-01-28T02:09:36;0.20;99.90
33476;DHT22;19814;48.224;11.422;2023-01-28T02:12:08;0.20;99.90
33476;DHT22;19814;48.224;11.422;2023-01-28T02:14:40;0.20;99.90
33476;DHT22;19814;48.224;11.422;2023-01-28T02:17:06;0.20;99.90
33476;DHT22;19814;48.224;11.422;2023-01-28T02:19:42;0.10;99.90
33476;DHT22;19814;48.224;11.422;2023-01-28T02:28:08;0.00;99.90
33476;DHT22;19814;48.224;11.422;2023-01-28T02:33:28;0.00;99.90
33476;DHT22;19814;48.224;11.422;2023-01-28T02:35:55;0.00;99.90
33476;DHT22;19814;48.224;11.422;2023-01-28T02:38:38;0.00;99.90
33476;DHT22;19814;48.224;11.422;2023-01-28T02:41:10;0.00;99.90
33476;DHT22;19814;48.224;11.422;2023-01-28T02:49:11;0.00;99.90
33476;DHT22;19814;48.224;11.422;2023-01-28T03:02:22;0.00;99.90
33476;DHT22;19814;48.224;11.422;2023-01-28T03:05:08;-0.10;99.90
33476;DHT22;19814;48.224;11.422;2023-01-28T03:07:37;-0.10;99.90
33476;DHT22;19814;48.224;11.422;2023-01-28T03:10:06;-0.10;99.90
33476;DHT22;19814;48.224;11.422;2023-01-28T03:12:34;-0.10;99.90
33476;DHT22;19814;48.224;11.422;2023-01-28T03:15:29;0.00;99.90
33476;DHT22;19814;48.224;11.422;2023-01-28T03:18:19;0.00;99.90
33476;DHT22;19814;48.224;11.422;2023-01-28T03:21:06;0.00;99.90
33476;DHT22;19814;48.224;11.422;2023-01-28T03:26:47;0.00;99.90
33476;DHT22;19814;48.224;11.422;2023-01-28T03:29:34;-0.10;99.90
33476;DHT22;19814;48.224;11.422;2023-01-28T03:32:19;0.00;99.90
33476;DHT22;19814;48.224;11.422;2023-01-28T03:35:06;0.10;99.90
33476;DHT22;19814;48.224;11.422;2023-01-28T03:37:52;0.00;99.90
33476;DHT22;19814;48.224;11.422;2023-01-28T03:40:18;0.00;99.90
33476;DHT22;19814;48.224;11.422;2023-01-28T03:42:43;0.00;99.90
33476;DHT22;19814;48.224;11.422;2023-01-28T03:45:10;0.00;99.90
33476;DHT22;19814;48.224;11.422;2023-01-28T03:47:36;0.00;99.90
33476;DHT22;19814;48.224;11.422;2023-01-28T03:50:02;0.00;99.90
33476;DHT22;19814;48.224;11.422;2023-01-28T03:52:32;0.00;99.90
33476;DHT22;19814;48.224;11.422;2023-01-28T03:54:58;-0.10;99.90
33476;DHT22;19814;48.224;11.422;2023-01-28T03:57:25;-0.10;99.90
33476;DHT22;19814;48.224;11.422;2023-01-28T03:59:51;0.00;99.90
33476;DHT22;19814;48.224;11.422;2023-01-28T04:02:19;0.00;99.90
33476;DHT22;19814;48.224;11.422;2023-01-28T04:04:45;-0.10;99.90
33476;DHT22;19814;48.224;11.422;2023-01-28T04:07:12;-0.10;99.90
33476;DHT22;19814;48.224;11.422;2023-01-28T04:09:41;-0.10;99.90
33476;DHT22;19814;48.224;11.422;2023-01-28T04:12:08;-0.10;99.90
33476;DHT22;19814;48.224;11.422;2023-01-28T04:14:33;-0.10;99.90
33476;DHT22;19814;48.224;11.422;2023-01-28T04:16:59;-0.10;99.90
33476;DHT22;19814;48.224;11.422;2023-01-28T04:19:25;0.00;99.90
33476;DHT22;19814;48.224;11.422;2023-01-28T04:21:50;-0.10;99.90
33476;DHT22;19814;48.224;11.422;2023-01-28T04:24:20;-0.20;99.90
33476;DHT22;19814;48.224;11.422;2023-01-28T04:26:46;-0.10;99.90
33476;DHT22;19814;48.224;11.422;2023-01-28T04:29:11;-0.10;99.90
33476;DHT22;19814;48.224;11.422;2023-01-28T04:31:37;-0.10;99.90
33476;DHT22;19814;48.224;11.422;2023-01-28T04:34:03;-0.10;99.90
33476;DHT22;19814;48.224;11.422;2023-01-28T04:36:28;0.00;99.90
33476;DHT22;19814;48.224;11.422;2023-01-28T04:38:54;-0.10;99.90
33476;DHT22;19814;48.224;11.422;2023-01-28T04:41:19;-0.10;99.90
33476;DHT22;19814;48.224;11.422;2023-01-28T04:43:45;-0.10;99.90
33476;DHT22;19814;48.224;11.422;2023-01-28T04:46:13;-0.10;99.90
33476;DHT22;19814;48.224;11.422;2023-01-28T04:48:39;-0.10;99.90
33476;DHT22;19814;48.224;11.422;2023-01-28T04:51:05;0.00;99.90
33476;DHT22;19814;48.224;11.422;2023-01-28T04:53:30;0.00;99.90
33476;DHT22;19814;48.224;11.422;2023-01-28T04:55:56;0.00;99.90
33476;DHT22;19814;48.224;11.422;2023-01-28T04:58:22;0.00;99.90
33476;DHT22;19814;48.224;11.422;2023-01-28T05:00:54;0.00;99.90
33476;DHT22;19814;48.224;11.422;2023-01-28T05:03:20;0.00;99.90
33476;DHT22;19814;48.224;11.422;2023-01-28T05:05:45;-0.10;99.90
33476;DHT22;19814;48.224;11.422;2023-01-28T05:08:11;0.00;99.90
33476;DHT22;19814;48.224;11.422;2023-01-28T05:10:36;0.00;99.90
33476;DHT22;19814;48.224;11.422;2023-01-28T05:13:02;-0.10;99.90
33476;DHT22;19814;48.224;11.422;2023-01-28T05:15:27;-0.10;99.90
33476;DHT22;19814;48.224;11.422;2023-01-28T05:17:54;-0.10;99.90
33476;DHT22;19814;48.224;11.422;2023-01-28T05:20:21;0.00;99.90
33476;DHT22;19814;48.224;11.422;2023-01-28T05:22:46;0.00;99.90
33476;DHT22;19814;48.224;11.422;2023-01-28T05:25:12;0.00;99.90
33476;DHT22;19814;48.224;11.422;2023-01-28T05:27:37;0.00;99.90
33476;DHT22;19814;48.224;11.422;2023-01-28T05:30:04;0.00;99.90
33476;DHT22;19814;48.224;11.422;2023-01-28T05:32:31;0.00;99.90
33476;DHT22;19814;48.224;11.422;2023-01-28T05:34:57;0.00;99.90
33476;DHT22;19814;48.224;11.422;2023-01-28T05:37:22;0.00;99.90
33476;DHT22;19814;48.224;11.422;2023-01-28T05:39:48;0.00;99.90
33476;DHT22;19814;48.224;11.422;2023-01-28T05:42:13;0.00;99.90
33476;DHT22;19814;48.224;11.422;2023-01-28T05:44:40;0.10;99.90
33476;DHT22;19814;48.224;11.422;2023-01-28T05:47:05;0.10;99.90
33476;DHT22;19814;48.224;11.422;2023-01-28T05:49:31;0.20;99.90
33476;DHT22;19814;48.224;11.422;2023-01-28T05:51:57;0.10;99.90
33476;DHT22;19814;48.224;11.422;2023-01-28T05:54:22;0.00;99.90
33476;DHT22;19814;48.224;11.422;2023-01-28T05:56:48;0.00;99.90
33476;DHT22;19814;48.224;11.422;2023-01-28T05:59:13;0.00;99.90
33476;DHT22;19814;48.224;11.422;2023-01-28T06:01:39;0.00;99.90
33476;DHT22;19814;48.224;11.422;2023-01-28T06:04:04;-0.10;99.90
33476;DHT22;19814;48.224;11.422;2023-01-28T06:06:30;-0.10;99.90
33476;DHT22;19814;48.224;11.422;2023-01-28T06:08:56;-0.10;99.90
33476;DHT22;19814;48.224;11.422;2023-01-28T06:11:21;-0.10;99.90
33476;DHT22;19814;48.224;11.422;2023-01-28T06:13:47;-0.10;99.90
33476;DHT22;19814;48.224;11.422;2023-01-28T06:16:12;-0.10;99.90
33476;DHT22;19814;48.224;11.422;2023-01-28T06:18:38;-0.10;99.90
33476;DHT22;19814;48.224;11.422;2023-01-28T06:21:05;-0.10;99.90
33476;DHT22;19814;48.224;11.422;2023-01-28T06:23:31;0.00;99.90
33476;DHT22;19814;48.224;11.422;2023-01-28T06:25:56;0.00;99.90
33476;DHT22;19814;48.224;11.422;2023-01-28T06:28:23;-0.10;99.90
33476;DHT22;19814;48.224;11.422;2023-01-28T06:30:53;0.00;99.90
33476;DHT22;19814;48.224;11.422;2023-01-28T06:33:19;-0.10;99.90
33476;DHT22;19814;48.224;11.422;2023-01-28T06:35:45;-0.10;99.90
33476;DHT22;19814;48.224;11.422;2023-01-28T06:38:12;-0.10;99.90
33476;DHT22;19814;48.224;11.422;2023-01-28T06:40:38;0.00;99.90
33476;DHT22;19814;48.224;11.422;2023-01-28T06:43:04;0.00;99.90
33476;DHT22;19814;48.224;11.422;2023-01-28T06:45:31;0.00;99.90
33476;DHT22;19814;48.224;11.422;2023-01-28T06:47:56;0.00;99.90
33476;DHT22;19814;48.224;11.422;2023-01-28T06:50:22;0.00;99.90
33476;DHT22;19814;48.224;11.422;2023-01-28T06:52:47;0.10;99.90
33476;DHT22;19814;48.224;11.422;2023-01-28T06:55:13;0.10;99.90
33476;DHT22;19814;48.224;11.422;2023-01-28T06:57:39;0.10;99.90
33476;DHT22;19814;48.224;11.422;2023-01-28T07:00:07;0.10;99.90
33476;DHT22;19814;48.224;11.422;2023-01-28T07:02:38;0.10;99.90
33476;DHT22;19814;48.224;11.422;2023-01-28T07:05:04;0.20;99.90
33476;DHT22;19814;48.224;11.422;2023-01-28T07:07:30;0.30;99.90
33476;DHT22;19814;48.224;11.422;2023-01-28T07:09:56;0.30;99.90
33476;DHT22;19814;48.224;11.422;2023-01-28T07:12:21;0.30;99.90
33476;DHT22;19814;48.224;11.422;2023-01-28T07:14:47;0.30;99.90
33476;DHT22;19814;48.224;11.422;2023-01-28T07:17:12;0.30;99.90
33476;DHT22;19814;48.224;11.422;2023-01-28T07:19:38;0.40;99.90
33476;DHT22;19814;48.224;11.422;2023-01-28T07:22:03;0.40;99.90
33476;DHT22;19814;48.224;11.422;2023-01-28T07:24:29;0.30;99.90
33476;DHT22;19814;48.224;11.422;2023-01-28T07:26:55;0.30;99.90
33476;DHT22;19814;48.224;11.422;2023-01-28T07:29:21;0.30;99.90
33476;DHT22;19814;48.224;11.422;2023-01-28T07:31:46;0.30;99.90
33476;DHT22;19814;48.224;11.422;2023-01-28T07:34:12;0.40;99.90
33476;DHT22;19814;48.224;11.422;2023-01-28T07:36:38;0.40;99.90
33476;DHT22;19814;48.224;11.422;2023-01-28T07:39:04;0.40;99.90
33476;DHT22;19814;48.224;11.422;2023-01-28T07:41:29;0.50;99.90
33476;DHT22;19814;48.224;11.422;2023-01-28T07:43:55;0.40;99.90
33476;DHT22;19814;48.224;11.422;2023-01-28T07:46:21;0.40;99.90
33476;DHT22;19814;48.224;11.422;2023-01-28T07:48:46;0.30;99.90
33476;DHT22;19814;48.224;11.422;2023-01-28T07:51:12;0.40;99.90
33476;DHT22;19814;48.224;11.422;2023-01-28T07:53:38;0.40;99.90
33476;DHT22;19814;48.224;11.422;2023-01-28T07:56:04;0.40;99.90
33476;DHT22;19814;48.224;11.422;2023-01-28T07:58:31;0.40;99.90
33476;DHT22;19814;48.224;11.422;2023-01-28T08:01:00;0.40;99.90
33476;DHT22;19814;48.224;11.422;2023-01-28T08:03:26;0.40;99.90
33476;DHT22;19814;48.224;11.422;2023-01-28T08:05:54;0.40;99.90
33476;DHT22;19814;48.224;11.422;2023-01-28T08:08:21;0.50;99.90
33476;DHT22;19814;48.224;11.422;2023-01-28T08:10:47;0.50;99.90
33476;DHT22;19814;48.224;11.422;2023-01-28T08:13:14;0.40;99.90
33476;DHT22;19814;48.224;11.422;2023-01-28T08:15:40;0.40;99.90
33476;DHT22;19814;48.224;11.422;2023-01-28T08:18:07;0.40;99.90
33476;DHT22;19814;48.224;11.422;2023-01-28T08:20:33;0.40;99.90
33476;DHT22;19814;48.224;11.422;2023-01-28T08:25:34;0.40;99.90
33476;DHT22;19814;48.224;11.422;2023-01-28T08:28:00;0.40;99.90
33476;DHT22;19814;48.224;11.422;2023-01-28T08:30:25;0.50;99.90
33476;DHT22;19814;48.224;11.422;2023-01-28T08:32:55;0.60;99.90
33476;DHT22;19814;48.224;11.422;2023-01-28T08:35:20;0.60;99.90
33476;DHT22;19814;48.224;11.422;2023-01-28T08:37:46;0.60;99.90
33476;DHT22;19814;48.224;11.422;2023-01-28T08:40:12;0.70;99.90
33476;DHT22;19814;48.224;11.422;2023-01-28T08:42:37;0.70;99.90
33476;DHT22;19814;48.224;11.422;2023-01-28T08:45:03;0.70;99.90
33476;DHT22;19814;48.224;11.422;2023-01-28T08:47:29;0.70;99.90
33476;DHT22;19814;48.224;11.422;2023-01-28T08:49:54;0.80;99.90
33476;DHT22;19814;48.224;11.422;2023-01-28T08:52:20;0.80;99.90
33476;DHT22;19814;48.224;11.422;2023-01-28T08:54:45;0.90;99.90
33476;DHT22;19814;48.224;11.422;2023-01-28T08:57:11;0.90;99.90
33476;DHT22;19814;48.224;11.422;2023-01-28T08:59:36;0.90;99.90
33476;DHT22;19814;48.224;11.422;2023-01-28T09:02:11;1.00;99.90
33476;DHT22;19814;48.224;11.422;2023-01-28T09:04:37;1.10;99.90
33476;DHT22;19814;48.224;11.422;2023-01-28T09:07:02;1.10;99.90
33476;DHT22;19814;48.224;11.422;2023-01-28T09:09:29;1.10;99.90
33476;DHT22;19814;48.224;11.422;2023-01-28T09:11:55;1.20;99.90
33476;DHT22;19814;48.224;11.422;2023-01-28T09:14:21;1.20;99.90
33476;DHT22;19814;48.224;11.422;2023-01-28T09:16:46;1.10;99.90
33476;DHT22;19814;48.224;11.422;2023-01-28T09:19:12;1.10;99.90
33476;DHT22;19814;48.224;11.422;2023-01-28T09:21:38;1.00;99.90
33476;DHT22;19814;48.224;11.422;2023-01-28T09:24:05;1.10;99.90
33476;DHT22;19814;48.224;11.422;2023-01-28T09:26:30;1.00;99.90
33476;DHT22;19814;48.224;11.422;2023-01-28T09:28:58;1.00;99.90
33476;DHT22;19814;48.224;11.422;2023-01-28T09:31:24;1.10;99.90
33476;DHT22;19814;48.224;11.422;2023-01-28T09:33:50;1.10;99.90
33476;DHT22;19814;48.224;11.422;2023-01-28T09:36:20;1.30;99.90
33476;DHT22;19814;48.224;11.422;2023-01-28T09:38:46;1.40;99.90
33476;DHT22;19814;48.224;11.422;2023-01-28T09:46:51;1.60;99.90
33476;DHT22;19814;48.224;11.422;2023-01-28T09:49:27;1.60;99.90
33476;DHT22;19814;48.224;11.422;2023-01-28T09:51:55;1.70;99.90
33476;DHT22;19814;48.224;11.422;2023-01-28T09:54:49;1.70;99.90
33476;DHT22;19814;48.224;11.422;2023-01-28T09:57:28;1.80;99.90
33476;DHT22;19814;48.224;11.422;2023-01-28T09:59:56;2.00;99.90
33476;DHT22;19814;48.224;11.422;2023-01-28T10:02:36;2.10;99.90
33476;DHT22;19814;48.224;11.422;2023-01-28T10:05:18;2.20;99.90
33476;DHT22;19814;48.224;11.422;2023-01-28T10:10:47;2.30;99.90
33476;DHT22;19814;48.224;11.422;2023-01-28T10:13:45;2.30;99.90
33476;DHT22;19814;48.224;11.422;2023-01-28T10:16:36;2.40;99.90
33476;DHT22;19814;48.224;11.422;2023-01-28T10:20:26;2.80;99.90
33476;DHT22;19814;48.224;11.422;2023-01-28T10:22:26;3.00;99.90
33476;DHT22;19814;48.224;11.422;2023-01-28T10:24:56;3.40;99.90
33476;DHT22;19814;48.224;11.422;2023-01-28T10:27:31;3.70;99.90
33476;DHT22;19814;48.224;11.422;2023-01-28T10:30:17;3.70;99.90
33476;DHT22;19814;48.224;11.422;2023-01-28T10:32:51;3.80;99.90
33476;DHT22;19814;48.224;11.422;2023-01-28T10:35:17;3.90;99.90
33476;DHT22;19814;48.224;11.422;2023-01-28T10:37:42;3.90;99.90
33476;DHT22;19814;48.224;11.422;2023-01-28T10:40:15;3.90;99.90
33476;DHT22;19814;48.224;11.422;2023-01-28T10:42:41;4.00;99.90
33476;DHT22;19814;48.224;11.422;2023-01-28T10:45:31;4.10;99.90
33476;DHT22;19814;48.224;11.422;2023-01-28T10:51:04;4.30;99.90
33476;DHT22;19814;48.224;11.422;2023-01-28T10:53:42;4.50;99.90
33476;DHT22;19814;48.224;11.422;2023-01-28T10:56:12;4.30;99.90
33476;DHT22;19814;48.224;11.422;2023-01-28T10:59:17;4.40;99.90
33476;DHT22;19814;48.224;11.422;2023-01-28T11:01:45;4.40;99.90
33476;DHT22;19814;48.224;11.422;2023-01-28T11:04:28;4.70;99.90
33476;DHT22;19814;48.224;11.422;2023-01-28T11:07:19;5.00;99.90
33476;DHT22;19814;48.224;11.422;2023-01-28T11:09:51;4.80;99.90
33476;DHT22;19814;48.224;11.422;2023-01-28T11:12:29;4.80;99.90
33476;DHT22;19814;48.224;11.422;2023-01-28T11:15:05;4.80;99.90
33476;DHT22;19814;48.224;11.422;2023-01-28T11:17:33;4.60;99.90
33476;DHT22;19814;48.224;11.422;2023-01-28T11:20:18;4.60;99.90
33476;DHT22;19814;48.224;11.422;2023-01-28T11:22:44;4.40;99.90
33476;DHT22;19814;48.224;11.422;2023-01-28T11:25:26;4.30;99.90
33476;DHT22;19814;48.224;11.422;2023-01-28T11:27:53;4.10;99.90
33476;DHT22;19814;48.224;11.422;2023-01-28T11:30:37;4.00;99.90
33476;DHT22;19814;48.224;11.422;2023-01-28T11:33:25;3.80;99.90
33476;DHT22;19814;48.224;11.422;2023-01-28T11:35:57;3.60;99.90
33476;DHT22;19814;48.224;11.422;2023-01-28T11:38:24;3.50;99.90
33476;DHT22;19814;48.224;11.422;2023-01-28T11:40:51;3.40;99.90
33476;DHT22;19814;48.224;11.422;2023-01-28T11:43:21;3.30;99.90
33476;DHT22;19814;48.224;11.422;2023-01-28T11:49:01;3.40;99.90
33476;DHT22;19814;48.224;11.422;2023-01-28T11:57:38;3.50;99.90
33476;DHT22;19814;48.224;11.422;2023-01-28T12:05:54;4.00;99.90
33476;DHT22;19814;48.224;11.422;2023-01-28T12:08:24;4.00;99.90
33476;DHT22;19814;48.224;11.422;2023-01-28T12:16:24;3.80;99.90
33476;DHT22;19814;48.224;11.422;2023-01-28T12:24:45;3.50;99.90
33476;DHT22;19814;48.224;11.422;2023-01-28T12:44:24;3.90;99.90
33476;DHT22;19814;48.224;11.422;2023-01-28T12:49:20;3.70;99.90
33476;DHT22;19814;48.224;11.422;2023-01-28T12:57:15;3.60;99.90
33476;DHT22;19814;48.224;11.422;2023-01-28T12:59:50;3.40;99.90
33476;DHT22;19814;48.224;11.422;2023-01-28T13:02:36;3.40;99.90
33476;DHT22;19814;48.224;11.422;2023-01-28T13:05:13;3.40;99.90
33476;DHT22;19814;48.224;11.422;2023-01-28T13:07:45;3.40;99.90
33476;DHT22;19814;48.224;11.422;2023-01-28T13:10:23;3.30;99.90
33476;DHT22;19814;48.224;11.422;2023-01-28T13:12:49;3.30;99.90
33476;DHT22;19814;48.224;11.422;2023-01-28T13:15:17;3.30;99.90
33476;DHT22;19814;48.224;11.422;2023-01-28T13:20:38;3.30;99.90
33476;DHT22;19814;48.224;11.422;2023-01-28T13:23:19;3.30;99.90
33476;DHT22;19814;48.224;11.422;2023-01-28T13:25:53;3.20;99.90
33476;DHT22;19814;48.224;11.422;2023-01-28T13:28:31;3.20;99.90
33476;DHT22;19814;48.224;11.422;2023-01-28T13:31:03;3.10;99.90
33476;DHT22;19814;48.224;11.422;2023-01-28T13:33:31;3.00;99.90
33476;DHT22;19814;48.224;11.422;2023-01-28T13:38:41;2.90;99.90
33476;DHT22;19814;48.224;11.422;2023-01-28T13:41:07;2.80;99.90
33476;DHT22;19814;48.224;11.422;2023-01-28T13:46:01;2.80;99.90
33476;DHT22;19814;48.224;11.422;2023-01-28T13:48:38;2.80;99.90
33476;DHT22;19814;48.224;11.422;2023-01-28T13:51:12;2.90;99.90
33476;DHT22;19814;48.224;11.422;2023-01-28T13:54:05;3.00;99.90
33476;DHT22;19814;48.224;11.422;2023-01-28T13:57:02;3.00;99.90
33476;DHT22;19814;48.224;11.422;2023-01-28T14:02:22;3.20;99.90
33476;DHT22;19814;48.224;11.422;2023-01-28T14:05:29;3.30;99.90
33476;DHT22;19814;48.224;11.422;2023-01-28T14:08:23;3.20;99.90
33476;DHT22;19814;48.224;11.422;2023-01-28T14:16:37;3.20;99.90
33476;DHT22;19814;48.224;11.422;2023-01-28T14:19:07;3.10;99.90
33476;DHT22;19814;48.224;11.422;2023-01-28T14:21:36;3.30;99.90
33476;DHT22;19814;48.224;11.422;2023-01-28T14:24:03;3.30;99.90
33476;DHT22;19814;48.224;11.422;2023-01-28T14:31:46;3.50;99.90
33476;DHT22;19814;48.224;11.422;2023-01-28T14:34:27;3.40;99.90
33476;DHT22;19814;48.224;11.422;2023-01-28T14:36:57;3.30;99.90
33476;DHT22;19814;48.224;11.422;2023-01-28T14:39:32;3.40;99.90
33476;DHT22;19814;48.224;11.422;2023-01-28T14:42:02;3.30;99.90
33476;DHT22;19814;48.224;11.422;2023-01-28T14:44:39;3.20;99.90
33476;DHT22;19814;48.224;11.422;2023-01-28T14:55:55;3.30;99.90
33476;DHT22;19814;48.224;11.422;2023-01-28T14:58:31;3.20;99.90
33476;DHT22;19814;48.224;11.422;2023-01-28T15:00:59;3.20;99.90
33476;DHT22;19814;48.224;11.422;2023-01-28T15:03:26;3.10;99.90
33476;DHT22;19814;48.224;11.422;2023-01-28T15:06:12;2.90;99.90
33476;DHT22;19814;48.224;11.422;2023-01-28T15:08:38;3.00;99.90
33476;DHT22;19814;48.224;11.422;2023-01-28T15:11:06;2.90;99.90
33476;DHT22;19814;48.224;11.422;2023-01-28T15:13:37;2.80;99.90
33476;DHT22;19814;48.224;11.422;2023-01-28T15:16:04;2.70;99.90
33476;DHT22;19814;48.224;11.422;2023-01-28T15:18:37;2.70;99.90
33476;DHT22;19814;48.224;11.422;2023-01-28T15:21:05;2.60;99.90
33476;DHT22;19814;48.224;11.422;2023-01-28T15:23:36;2.60;99.90
33476;DHT22;19814;48.224;11.422;2023-01-28T15:26:09;2.60;99.90
33476;DHT22;19814;48.224;11.422;2023-01-28T15:28:36;2.50;99.90
33476;DHT22;19814;48.224;11.422;2023-01-28T15:31:03;2.50;99.90
33476;DHT22;19814;48.224;11.422;2023-01-28T15:33:28;2.40;99.90
33476;DHT22;19814;48.224;11.422;2023-01-28T15:35:55;2.40;99.90
33476;DHT22;19814;48.224;11.422;2023-01-28T15:38:23;2.20;99.90
33476;DHT22;19814;48.224;11.422;2023-01-28T15:40:54;2.20;99.90
33476;DHT22;19814;48.224;11.422;2023-01-28T15:43:24;2.20;99.90
33476;DHT22;19814;48.224;11.422;2023-01-28T15:45:52;2.20;99.90
33476;DHT22;19814;48.224;11.422;2023-01-28T15:48:21;2.20;99.90
33476;DHT22;19814;48.224;11.422;2023-01-28T15:50:47;2.20;99.90
33476;DHT22;19814;48.224;11.422;2023-01-28T15:53:21;2.10;99.90
33476;DHT22;19814;48.224;11.422;2023-01-28T15:55:47;2.10;99.90
33476;DHT22;19814;48.224;11.422;2023-01-28T15:58:29;2.00;99.90
33476;DHT22;19814;48.224;11.422;2023-01-28T16:01:03;2.10;99.90
33476;DHT22;19814;48.224;11.422;2023-01-28T16:03:37;2.00;99.90
33476;DHT22;19814;48.224;11.422;2023-01-28T16:06:20;1.90;99.90
33476;DHT22;19814;48.224;11.422;2023-01-28T16:08:50;1.90;99.90
33476;DHT22;19814;48.224;11.422;2023-01-28T16:11:43;1.90;99.90
33476;DHT22;19814;48.224;11.422;2023-01-28T16:14:23;1.80;99.90
33476;DHT22;19814;48.224;11.422;2023-01-28T16:16:50;1.90;99.90
33476;DHT22;19814;48.224;11.422;2023-01-28T16:19:41;1.90;99.90
33476;DHT22;19814;48.224;11.422;2023-01-28T16:22:20;1.80;99.90
33476;DHT22;19814;48.224;11.422;2023-01-28T16:24:51;1.70;99.90
33476;DHT22;19814;48.224;11.422;2023-01-28T16:27:25;1.70;99.90
33476;DHT22;19814;48.224;11.422;2023-01-28T16:29:51;1.70;99.90
33476;DHT22;19814;48.224;11.422;2023-01-28T16:32:35;1.70;99.90
33476;DHT22;19814;48.224;11.422;2023-01-28T16:35:02;1.70;99.90
33476;DHT22;19814;48.224;11.422;2023-01-28T16:37:29;1.70;99.90
33476;DHT22;19814;48.224;11.422;2023-01-28T16:39:54;1.70;99.90
33476;DHT22;19814;48.224;11.422;2023-01-28T16:42:20;1.70;99.90
33476;DHT22;19814;48.224;11.422;2023-01-28T16:44:46;1.70;99.90
33476;DHT22;19814;48.224;11.422;2023-01-28T16:47:11;1.80;99.90
33476;DHT22;19814;48.224;11.422;2023-01-28T16:49:37;1.80;99.90
33476;DHT22;19814;48.224;11.422;2023-01-28T16:52:03;1.80;99.90
33476;DHT22;19814;48.224;11.422;2023-01-28T16:54:29;1.80;99.90
33476;DHT22;19814;48.224;11.422;2023-01-28T16:56:55;1.80;99.90
33476;DHT22;19814;48.224;11.422;2023-01-28T16:59:21;1.90;99.90
33476;DHT22;19814;48.224;11.422;2023-01-28T17:01:47;1.90;99.90
33476;DHT22;19814;48.224;11.422;2023-01-28T17:04:12;1.90;99.90
33476;DHT22;19814;48.224;11.422;2023-01-28T17:06:39;1.90;99.90
33476;DHT22;19814;48.224;11.422;2023-01-28T17:09:07;1.80;99.90
33476;DHT22;19814;48.224;11.422;2023-01-28T17:11:33;1.80;99.90
33476;DHT22;19814;48.224;11.422;2023-01-28T17:13:59;1.80;99.90
33476;DHT22;19814;48.224;11.422;2023-01-28T17:16:25;1.80;99.90
33476;DHT22;19814;48.224;11.422;2023-01-28T17:18:52;1.70;99.90
33476;DHT22;19814;48.224;11.422;2023-01-28T17:21:18;1.70;99.90
33476;DHT22;19814;48.224;11.422;2023-01-28T17:23:44;1.60;99.90
33476;DHT22;19814;48.224;11.422;2023-01-28T17:26:13;1.50;99.90
33476;DHT22;19814;48.224;11.422;2023-01-28T17:28:39;1.50;99.90
33476;DHT22;19814;48.224;11.422;2023-01-28T17:31:06;1.50;99.90
33476;DHT22;19814;48.224;11.422;2023-01-28T17:33:32;1.50;99.90
33476;DHT22;19814;48.224;11.422;2023-01-28T17:35:59;1.50;99.90
33476;DHT22;19814;48.224;11.422;2023-01-28T17:38:26;1.50;99.90
33476;DHT22;19814;48.224;11.422;2023-01-28T17:40:51;1.60;99.90
33476;DHT22;19814;48.224;11.422;2023-01-28T17:43:17;1.60;99.90
33476;DHT22;19814;48.224;11.422;2023-01-28T17:45:43;1.50;99.90
33476;DHT22;19814;48.224;11.422;2023-01-28T17:48:09;1.50;99.90
33476;DHT22;19814;48.224;11.422;2023-01-28T17:50:38;1.50;99.90
33476;DHT22;19814;48.224;11.422;2023-01-28T17:53:03;1.40;99.90